Time,TemperatureF,DewpointF,PressureIn,WindDirection,WindDirectionDegrees,WindSpeedMPH,WindSpeedGustMPH,Humidity,HourlyPrecipIn,Conditions,Clouds,dailyrainin,SoftwareType,DateUTC
2013-06-15 00:07:00,54.5,48.4,29.74,NNW,341,1.0,6.3,80,0.00,,,-99.99,FreeWX-Wi 1.01,2013-06-15 07:07:00,
2013-06-15 00:17:00,54.5,48.4,29.74,NW,321,1.0,4.9,80,0.00,,,-99.99,FreeWX-Wi 1.01,2013-06-15 07:17:00,
2013-06-15 00:27:00,54.5,48.4,29.74,NW,325,1.0,3.1,80,0.00,,,-99.99,FreeWX-Wi 1.01,2013-06-15 07:27:00,
2013-06-15 00:37:00,54.5,48.4,29.74,North,-999,0.0,4.5,80,0.00,,,-99.99,FreeWX-Wi 1.01,2013-06-15 07:37:00,
2013-06-15 00:47:00,54.3,48.2,29.74,North,-999,0.0,4.9,80,0.00,,,-99.99,FreeWX-Wi 1.01,2013-06-15 07:47:00,
2013-06-15 00:57:00,54.1,48.4,29.74,North,-999,0.0,2.7,81,0.00,,,-99.99,FreeWX-Wi 1.01,2013-06-15 07:57:00,
2013-06-15 01:07:00,54.1,48.4,29.74,North,-999,0.0,5.4,81,0.00,,,-99.99,FreeWX-Wi 1.01,2013-06-15 08:07:00,
2013-06-15 01:17:00,54.1,48.7,29.74,North,-999,0.0,4.0,82,0.00,,,-99.99,FreeWX-Wi 1.01,2013-06-15 08:17:00,
2013-06-15 01:27:00,54.0,48.6,29.74,NNW,333,1.0,4.0,82,0.00,,,-99.99,FreeWX-Wi 1.01,2013-06-15 08:27:00,
2013-06-15 01:37:00,53.8,48.4,29.74,North,-999,0.0,3.6,82,0.00,,,-99.99,FreeWX-Wi 1.01,2013-06-15 08:37:00,
2013-06-15 01:47:00,53.6,48.2,29.74,North,-999,0.0,4.0,82,0.00,,,-99.99,FreeWX-Wi 1.01,2013-06-15 08:47:00,
2013-06-15 01:57:00,53.6,48.2,29.74,North,-999,0.0,4.0,82,0.00,,,-99.99,FreeWX-Wi 1.01,2013-06-15 08:57:00,
2013-06-15 02:07:00,53.6,48.6,29.74,North,-999,0.0,6.3,83,0.00,,,-99.99,FreeWX-Wi 1.01,2013-06-15 09:07:00,
2013-06-15 02:17:00,53.4,48.4,29.74,North,-999,0.0,3.6,83,0.00,,,-99.99,FreeWX-Wi 1.01,2013-06-15 09:17:00,
2013-06-15 02:27:00,53.2,48.6,29.74,NNW,346,1.0,5.4,84,0.00,,,-99.99,FreeWX-Wi 1.01,2013-06-15 09:27:00,
2013-06-15 02:37:00,53.1,48.4,29.74,NNW,335,1.0,5.8,84,0.00,,,-99.99,FreeWX-Wi 1.01,2013-06-15 09:37:00,
2013-06-15 02:47:00,53.1,48.7,29.74,NNW,334,1.0,4.0,85,0.00,,,-99.99,FreeWX-Wi 1.01,2013-06-15 09:47:00,
2013-06-15 02:57:00,52.9,48.6,29.74,North,-999,0.0,3.1,85,0.00,,,-99.99,FreeWX-Wi 1.01,2013-06-15 09:57:00,
2013-06-15 03:07:00,53.1,48.7,29.74,North,-999,0.0,4.0,85,0.00,,,-99.99,FreeWX-Wi 1.01,2013-06-15 10:07:00,
2013-06-15 03:17:00,52.9,48.6,29.74,North,-999,0.0,4.0,85,0.00,,,-99.99,FreeWX-Wi 1.01,2013-06-15 10:17:00,
2013-06-15 03:27:00,52.7,48.6,29.74,North,-999,0.0,4.0,86,0.00,,,-99.99,FreeWX-Wi 1.01,2013-06-15 10:27:00,
2013-06-15 03:37:00,52.7,48.6,29.74,North,-999,0.0,3.6,86,0.00,,,-99.99,FreeWX-Wi 1.01,2013-06-15 10:37:00,
2013-06-15 03:47:00,52.9,49.1,29.74,North,-999,0.0,2.7,87,0.00,,,-99.99,FreeWX-Wi 1.01,2013-06-15 10:47:00,
2013-06-15 03:57:00,53.1,49.3,29.74,North,-999,0.0,3.6,87,0.00,,,-99.99,FreeWX-Wi 1.01,2013-06-15 10:57:00,
2013-06-15 04:07:00,53.1,48.9,29.74,North,-999,0.0,4.0,86,0.00,,,-99.99,FreeWX-Wi 1.01,2013-06-15 11:07:00,
2013-06-15 04:17:00,52.9,48.7,29.74,North,-999,0.0,4.0,86,0.00,,,-99.99,FreeWX-Wi 1.01,2013-06-15 11:17:00,
2013-06-15 04:27:00,52.9,48.7,29.74,North,-999,0.0,2.7,86,0.00,,,-99.99,FreeWX-Wi 1.01,2013-06-15 11:27:00,
2013-06-15 04:37:00,53.1,48.9,29.74,North,-999,0.0,0.0,86,0.00,,,-99.99,FreeWX-Wi 1.01,2013-06-15 11:37:00,
2013-06-15 04:47:00,53.1,48.7,29.74,North,-999,0.0,0.0,85,0.00,,,-99.99,FreeWX-Wi 1.01,2013-06-15 11:47:00,
2013-06-15 04:57:00,53.1,48.7,29.74,North,-999,0.0,5.4,85,0.00,,,-99.99,FreeWX-Wi 1.01,2013-06-15 11:57:00,
2013-06-15 05:07:00,53.1,48.9,29.74,North,-999,0.0,4.0,86,0.00,,,-99.99,FreeWX-Wi 1.01,2013-06-15 12:07:00,
2013-06-15 07:21:00,53.4,49.1,29.76,North,-999,0.0,4.0,85,0.00,,,-99.99,FreeWX-Wi 1.01,2013-06-15 14:21:00,
2013-06-15 07:31:00,53.6,49.3,29.76,West,271,1.0,4.9,85,0.00,,,-99.99,FreeWX-Wi 1.01,2013-06-15 14:31:00,
2013-06-15 07:41:00,54.0,49.6,29.79,WNW,284,1.0,7.2,85,0.00,,,-99.99,FreeWX-Wi 1.01,2013-06-15 14:41:00,
2013-06-15 07:51:00,54.0,48.9,29.79,WNW,297,1.0,5.4,83,0.00,,,-99.99,FreeWX-Wi 1.01,2013-06-15 14:51:00,
2013-06-15 08:01:00,54.1,49.1,29.79,WNW,291,1.0,4.0,83,0.00,,,-99.99,FreeWX-Wi 1.01,2013-06-15 15:01:00,
2013-06-15 08:11:00,54.1,48.7,29.79,WNW,300,1.0,5.8,82,0.00,,,-99.99,FreeWX-Wi 1.01,2013-06-15 15:11:00,
2013-06-15 08:21:00,54.1,48.7,29.79,NW,311,2.0,5.8,82,0.00,,,-99.99,FreeWX-Wi 1.01,2013-06-15 15:21:00,
2013-06-15 08:31:00,54.3,49.3,29.79,NW,321,2.0,5.8,83,0.00,,,-99.99,FreeWX-Wi 1.01,2013-06-15 15:31:00,
2013-06-15 08:41:00,54.5,49.1,29.79,NW,316,2.0,4.9,82,0.00,,,-99.99,FreeWX-Wi 1.01,2013-06-15 15:41:00,
2013-06-15 08:51:00,54.7,48.9,29.79,NW,308,1.0,6.3,81,0.00,,,-99.99,FreeWX-Wi 1.01,2013-06-15 15:51:00,
2013-06-15 09:01:00,54.9,48.7,29.79,NW,310,2.0,5.4,80,0.00,,,-99.99,FreeWX-Wi 1.01,2013-06-15 16:01:00,
2013-06-15 09:11:00,55.0,48.9,29.82,WNW,283,2.0,5.4,80,0.00,,,-99.99,FreeWX-Wi 1.01,2013-06-15 16:11:00,
2013-06-15 09:21:00,55.2,48.7,29.82,WNW,282,2.0,5.8,79,0.00,,,-99.99,FreeWX-Wi 1.01,2013-06-15 16:21:00,
2013-06-15 09:31:00,55.2,48.7,29.82,WNW,290,2.0,7.6,79,0.00,,,-99.99,FreeWX-Wi 1.01,2013-06-15 16:31:00,
2013-06-15 09:41:00,55.4,48.7,29.82,NW,315,2.0,8.3,78,0.00,,,-99.99,FreeWX-Wi 1.01,2013-06-15 16:41:00,
2013-06-15 09:51:00,55.6,48.2,29.82,NW,308,2.0,7.6,76,0.00,,,-99.99,FreeWX-Wi 1.01,2013-06-15 16:51:00,
2013-06-15 10:01:00,55.9,48.2,29.82,WNW,289,2.0,6.3,75,0.00,,,-99.99,FreeWX-Wi 1.01,2013-06-15 17:01:00,
2013-06-15 10:11:00,56.3,48.2,29.82,WNW,299,3.0,8.1,74,0.00,,,-99.99,FreeWX-Wi 1.01,2013-06-15 17:11:00,
2013-06-15 10:21:00,56.7,48.0,29.82,NW,321,3.0,8.1,73,0.00,,,-99.99,FreeWX-Wi 1.01,2013-06-15 17:21:00,
2013-06-15 10:31:00,57.0,47.7,29.82,NNW,342,3.0,7.2,71,0.00,,,-99.99,FreeWX-Wi 1.01,2013-06-15 17:31:00,
2013-06-15 10:41:00,57.9,48.2,29.82,NNW,335,3.0,8.3,70,0.00,,,-99.99,FreeWX-Wi 1.01,2013-06-15 17:41:00,
2013-06-15 10:51:00,57.9,47.5,29.82,NW,320,3.0,7.6,68,0.00,,,-99.99,FreeWX-Wi 1.01,2013-06-15 17:51:00,
2013-06-15 11:01:00,58.8,47.8,29.82,WNW,296,2.0,5.8,67,0.00,,,-99.99,FreeWX-Wi 1.01,2013-06-15 18:01:00,
2013-06-15 11:11:00,59.2,47.5,29.82,West,273,2.0,6.3,65,0.00,,,-99.99,FreeWX-Wi 1.01,2013-06-15 18:11:00,
2013-06-15 11:21:00,59.2,47.5,29.82,WNW,286,3.0,6.3,65,0.00,,,-99.99,FreeWX-Wi 1.01,2013-06-15 18:21:00,
2013-06-15 11:31:00,59.5,47.3,29.82,NW,307,3.0,7.6,64,0.00,,,-99.99,FreeWX-Wi 1.01,2013-06-15 18:31:00,
2013-06-15 11:41:00,59.7,47.5,29.82,NW,306,3.0,8.3,64,0.00,,,-99.99,FreeWX-Wi 1.01,2013-06-15 18:41:00,
2013-06-15 11:51:00,59.9,46.8,29.82,WNW,295,3.0,9.6,62,0.00,,,-99.99,FreeWX-Wi 1.01,2013-06-15 18:51:00,
2013-06-15 12:01:00,60.1,47.5,29.82,WNW,286,3.0,8.7,63,0.00,,,-99.99,FreeWX-Wi 1.01,2013-06-15 19:01:00,
2013-06-15 12:11:00,61.0,46.0,29.82,WNW,297,3.0,7.6,58,0.00,,,-99.99,FreeWX-Wi 1.01,2013-06-15 19:11:00,
2013-06-15 12:21:00,61.5,46.6,29.82,WNW,298,3.0,6.3,58,0.00,,,-99.99,FreeWX-Wi 1.01,2013-06-15 19:21:00,
2013-06-15 12:31:00,61.7,46.2,29.85,NNW,327,3.0,8.3,57,0.00,,,-99.99,FreeWX-Wi 1.01,2013-06-15 19:31:00,
2013-06-15 12:41:00,62.6,45.1,29.85,NW,323,3.0,8.1,53,0.00,,,-99.99,FreeWX-Wi 1.01,2013-06-15 19:41:00,
2013-06-15 12:51:00,62.1,45.7,29.85,NNW,329,4.0,8.1,55,0.00,,,-99.99,FreeWX-Wi 1.01,2013-06-15 19:51:00,
2013-06-15 13:01:00,62.4,45.5,29.85,NW,323,4.0,8.7,54,0.00,,,-99.99,FreeWX-Wi 1.01,2013-06-15 20:01:00,
2013-06-15 13:11:00,62.2,45.9,29.85,NNW,333,4.0,12.8,55,0.00,,,-99.99,FreeWX-Wi 1.01,2013-06-15 20:11:00,
2013-06-15 13:21:00,62.1,46.2,29.85,NW,322,5.0,10.5,56,0.00,,,-99.99,FreeWX-Wi 1.01,2013-06-15 20:21:00,
2013-06-15 13:31:00,61.9,46.0,29.85,NW,325,5.0,8.7,56,0.00,,,-99.99,FreeWX-Wi 1.01,2013-06-15 20:31:00,
2013-06-15 13:41:00,61.9,46.4,29.85,NNW,327,5.0,11.0,57,0.00,,,-99.99,FreeWX-Wi 1.01,2013-06-15 20:41:00,
2013-06-15 13:51:00,61.9,46.9,29.85,NNW,339,4.0,10.5,58,0.00,,,-99.99,FreeWX-Wi 1.01,2013-06-15 20:51:00,
2013-06-15 14:01:00,61.7,47.3,29.85,NNW,345,5.0,9.6,59,0.00,,,-99.99,FreeWX-Wi 1.01,2013-06-15 21:01:00,
2013-06-15 14:11:00,61.5,47.1,29.85,NNW,345,5.0,8.1,59,0.00,,,-99.99,FreeWX-Wi 1.01,2013-06-15 21:11:00,
2013-06-15 14:21:00,61.3,46.9,29.85,NNW,341,4.0,10.1,59,0.00,,,-99.99,FreeWX-Wi 1.01,2013-06-15 21:21:00,
2013-06-15 14:31:00,60.6,48.0,29.85,NNW,337,5.0,10.5,63,0.00,,,-99.99,FreeWX-Wi 1.01,2013-06-15 21:31:00,
2013-06-15 14:41:00,60.6,47.5,29.82,NW,323,5.0,10.5,62,0.00,,,-99.99,FreeWX-Wi 1.01,2013-06-15 21:41:00,
2013-06-15 14:51:00,60.4,47.8,29.85,NW,320,4.0,8.1,63,0.00,,,-99.99,FreeWX-Wi 1.01,2013-06-15 21:51:00,
2013-06-15 15:01:00,60.4,48.2,29.82,NW,317,4.0,11.0,64,0.00,,,-99.99,FreeWX-Wi 1.01,2013-06-15 22:01:00,
2013-06-15 15:11:00,59.9,48.0,29.82,NNW,329,4.0,11.0,65,0.00,,,-99.99,FreeWX-Wi 1.01,2013-06-15 22:11:00,
2013-06-15 15:21:00,59.9,48.0,29.82,WNW,288,5.0,9.6,65,0.00,,,-99.99,FreeWX-Wi 1.01,2013-06-15 22:21:00,
2013-06-15 15:31:00,60.6,48.0,29.82,West,273,5.0,11.0,63,0.00,,,-99.99,FreeWX-Wi 1.01,2013-06-15 22:31:00,
2013-06-15 15:41:00,61.0,47.5,29.82,WSW,258,5.0,15.0,61,0.00,,,-99.99,FreeWX-Wi 1.01,2013-06-15 22:41:00,
2013-06-15 15:51:00,61.3,47.8,29.82,West,265,4.0,10.5,61,0.00,,,-99.99,FreeWX-Wi 1.01,2013-06-15 22:51:00,
2013-06-15 16:01:00,61.7,47.3,29.82,West,264,4.0,9.2,59,0.00,,,-99.99,FreeWX-Wi 1.01,2013-06-15 23:01:00,
2013-06-15 16:11:00,61.9,47.8,29.82,SW,233,4.0,9.2,60,0.00,,,-99.99,FreeWX-Wi 1.01,2013-06-15 23:11:00,
2013-06-15 16:21:00,60.8,47.3,29.82,WNW,283,4.0,13.2,61,0.00,,,-99.99,FreeWX-Wi 1.01,2013-06-15 23:21:00,
2013-06-15 16:31:00,60.1,47.8,29.82,NNW,340,4.0,10.5,64,0.00,,,-99.99,FreeWX-Wi 1.01,2013-06-15 23:31:00,
2013-06-15 16:41:00,59.4,48.4,29.82,NNW,340,5.0,11.0,67,0.00,,,-99.99,FreeWX-Wi 1.01,2013-06-15 23:41:00,
2013-06-15 16:51:00,58.8,48.7,29.82,NNW,334,6.0,10.1,69,0.00,,,-99.99,FreeWX-Wi 1.01,2013-06-15 23:51:00,
2013-06-15 17:01:00,58.3,48.9,29.82,NNW,327,6.0,11.9,71,0.00,,,-99.99,FreeWX-Wi 1.01,2013-06-16 00:01:00,
2013-06-15 17:11:00,58.3,48.9,29.82,NNW,330,6.0,14.1,71,0.00,,,-99.99,FreeWX-Wi 1.01,2013-06-16 00:11:00,
2013-06-15 17:21:00,58.1,49.1,29.82,NNW,338,5.0,10.5,72,0.00,,,-99.99,FreeWX-Wi 1.01,2013-06-16 00:21:00,
2013-06-15 17:31:00,57.9,48.9,29.82,NNW,341,5.0,14.5,72,0.00,,,-99.99,FreeWX-Wi 1.01,2013-06-16 00:31:00,
2013-06-15 17:41:00,57.6,48.9,29.82,NNW,339,6.0,13.6,73,0.00,,,-99.99,FreeWX-Wi 1.01,2013-06-16 00:41:00,
2013-06-15 17:51:00,57.6,49.3,29.82,NNW,335,5.0,11.0,74,0.00,,,-99.99,FreeWX-Wi 1.01,2013-06-16 00:51:00,
2013-06-15 18:01:00,57.2,48.9,29.82,NNW,337,5.0,12.3,74,0.00,,,-99.99,FreeWX-Wi 1.01,2013-06-16 01:01:00,
2013-06-15 18:11:00,57.0,49.1,29.82,NNW,329,6.0,10.5,75,0.00,,,-99.99,FreeWX-Wi 1.01,2013-06-16 01:11:00,
2013-06-15 18:21:00,56.7,49.1,29.82,NNW,329,6.0,12.8,76,0.00,,,-99.99,FreeWX-Wi 1.01,2013-06-16 01:21:00,
2013-06-15 18:31:00,56.8,49.3,29.82,NNW,332,5.0,8.3,76,0.00,,,-99.99,FreeWX-Wi 1.01,2013-06-16 01:31:00,
2013-06-15 18:41:00,57.0,49.1,29.82,NNW,336,4.0,7.2,75,0.00,,,-99.99,FreeWX-Wi 1.01,2013-06-16 01:41:00,
2013-06-15 18:51:00,56.8,49.3,29.82,NNW,333,3.0,11.0,76,0.00,,,-99.99,FreeWX-Wi 1.01,2013-06-16 01:51:00,
2013-06-15 19:01:00,56.8,49.3,29.85,SW,226,3.0,6.3,76,0.00,,,-99.99,FreeWX-Wi 1.01,2013-06-16 02:01:00,
2013-06-15 19:11:00,56.8,48.9,29.85,West,269,3.0,7.6,75,0.00,,,-99.99,FreeWX-Wi 1.01,2013-06-16 02:11:00,
2013-06-15 19:21:00,56.5,48.9,29.85,WNW,293,3.0,10.1,76,0.00,,,-99.99,FreeWX-Wi 1.01,2013-06-16 02:21:00,
2013-06-15 19:31:00,56.3,49.1,29.85,NNW,330,3.0,10.5,77,0.00,,,-99.99,FreeWX-Wi 1.01,2013-06-16 02:31:00,
2013-06-15 19:41:00,56.3,49.5,29.85,NW,325,3.0,8.1,78,0.00,,,-99.99,FreeWX-Wi 1.01,2013-06-16 02:41:00,
2013-06-15 19:51:00,56.1,49.3,29.85,NNW,328,3.0,7.6,78,0.00,,,-99.99,FreeWX-Wi 1.01,2013-06-16 02:51:00,
2013-06-15 20:01:00,55.8,49.3,29.85,NNW,336,4.0,8.3,79,0.00,,,-99.99,FreeWX-Wi 1.01,2013-06-16 03:01:00,
2013-06-15 20:11:00,55.4,49.3,29.85,NNW,337,4.0,8.7,80,0.00,,,-99.99,FreeWX-Wi 1.01,2013-06-16 03:11:00,
2013-06-15 20:21:00,55.2,49.5,29.85,NNW,337,4.0,10.1,81,0.00,,,-99.99,FreeWX-Wi 1.01,2013-06-16 03:21:00,
2013-06-15 20:31:00,55.0,49.6,29.85,NNW,336,4.0,10.1,82,0.00,,,-99.99,FreeWX-Wi 1.01,2013-06-16 03:31:00,
2013-06-15 20:41:00,54.9,49.5,29.85,NNW,338,4.0,11.0,82,0.00,,,-99.99,FreeWX-Wi 1.01,2013-06-16 03:41:00,
2013-06-15 20:51:00,54.9,49.8,29.85,NNW,342,4.0,6.3,83,0.00,,,-99.99,FreeWX-Wi 1.01,2013-06-16 03:51:00,
2013-06-15 21:01:00,54.7,49.6,29.85,NNW,339,4.0,10.1,83,0.00,,,-99.99,FreeWX-Wi 1.01,2013-06-16 04:01:00,
2013-06-15 21:11:00,54.7,49.6,29.85,NNW,339,4.0,8.1,83,0.00,,,-99.99,FreeWX-Wi 1.01,2013-06-16 04:11:00,
2013-06-15 21:21:00,54.7,50.0,29.88,NNW,336,4.0,7.6,84,0.00,,,-99.99,FreeWX-Wi 1.01,2013-06-16 04:21:00,
2013-06-15 21:31:00,54.7,50.0,29.88,NNW,342,3.0,8.3,84,0.00,,,-99.99,FreeWX-Wi 1.01,2013-06-16 04:31:00,
2013-06-15 21:41:00,54.7,50.0,29.88,NNW,345,3.0,7.6,84,0.00,,,-99.99,FreeWX-Wi 1.01,2013-06-16 04:41:00,
2013-06-15 21:51:00,54.7,50.0,29.88,North,349,3.0,8.3,84,0.00,,,-99.99,FreeWX-Wi 1.01,2013-06-16 04:51:00,
2013-06-15 22:01:00,54.7,50.0,29.88,North,0,3.0,8.3,84,0.00,,,-99.99,FreeWX-Wi 1.01,2013-06-16 05:01:00,
2013-06-15 22:11:00,54.9,50.2,29.88,North,8,2.0,6.3,84,0.00,,,-99.99,FreeWX-Wi 1.01,2013-06-16 05:11:00,
2013-06-15 22:21:00,54.7,49.6,29.88,North,354,3.0,8.7,83,0.00,,,-99.99,FreeWX-Wi 1.01,2013-06-16 05:21:00,
2013-06-15 22:31:00,54.7,49.6,29.88,NNW,341,3.0,8.3,83,0.00,,,-99.99,FreeWX-Wi 1.01,2013-06-16 05:31:00,
2013-06-15 22:41:00,55.2,50.5,29.88,NW,322,3.0,8.7,84,0.00,,,-99.99,FreeWX-Wi 1.01,2013-06-16 05:41:00,
2013-06-15 22:51:00,54.9,49.8,29.88,NW,323,3.0,8.7,83,0.00,,,-99.99,FreeWX-Wi 1.01,2013-06-16 05:51:00,
2013-06-15 23:01:00,55.4,50.4,29.88,NNW,328,2.0,5.8,83,0.00,,,-99.99,FreeWX-Wi 1.01,2013-06-16 06:01:00,
2013-06-15 23:11:00,55.2,49.8,29.88,North,0,2.0,6.3,82,0.00,,,-99.99,FreeWX-Wi 1.01,2013-06-16 06:11:00,
2013-06-15 23:21:00,55.0,49.6,29.88,NNW,346,2.0,8.7,82,0.00,,,-99.99,FreeWX-Wi 1.01,2013-06-16 06:21:00,
2013-06-15 23:31:00,55.2,49.8,29.88,NW,322,2.0,6.3,82,0.00,,,-99.99,FreeWX-Wi 1.01,2013-06-16 06:31:00,
2013-06-15 23:41:00,55.4,50.0,29.88,WNW,286,2.0,4.9,82,0.00,,,-99.99,FreeWX-Wi 1.01,2013-06-16 06:41:00,
2013-06-15 23:51:00,55.4,49.6,29.88,WSW,255,1.0,5.4,81,0.00,,,-99.99,FreeWX-Wi 1.01,2013-06-16 06:51:00,